Jules Verne — A8SN2 — position and weather

sailwx.info

Track history (hours):
 
Tides and Currents Weather Stations Pressure Air Temp Water Temp Dewpoint Dewpoint Depression Visibility Wind Speed Wind Dir Waves Ship Positions

Jules Verne

Last reported at 2018-Feb-18 03:28 UTC. Time now 2018-Feb-24 00:34 UTC.
Position N 23°07' E 117°23'.

Length 261 m; draft 10.7 m.

Type: Ship (hazmat cat A). MMSI: 636091763.

Date/timePositionNaut miles runAvg speedWind from/ knotsBaromVisibWave heightAir tempDewpointWater temp
2018-Feb-18 03:28N 23°07' E 117°23'510.6
2018-Feb-18 02:59N 23°10' E 117°27'610.4
2018-Feb-18 02:27N 23°13' E 117°32'510.3
2018-Feb-18 01:55N 23°17' E 117°36'410.4
2018-Feb-18 01:29N 23°20' E 117°40'510.6
2018-Feb-18 01:00N 23°23' E 117°45'510.1
2018-Feb-18 00:30N 23°26' E 117°49'710.9
2018-Feb-17 23:50N 23°31' E 117°55'411.3
2018-Feb-17 23:30N 23°34' E 117°58'611.4
2018-Feb-17 22:56N 23°38' E 118°03'2412.1
2018-Feb-17 21:00N 23°52' E 118°24'812.5
2018-Feb-17 20:22N 23°57' E 118°30'512.5
2018-Feb-17 19:58N 24°00' E 118°34'612.5
2018-Feb-17 19:30N 24°04' E 118°39'  
2018-Feb-12 19:53N 31°05' E 122°38'514.2
2018-Feb-12 19:30N 31°05' E 122°32'811.9
2018-Feb-12 18:53N 31°06' E 122°23'613.8
2018-Feb-12 18:28N 31°07' E 122°16'1012.4
2018-Feb-12 17:38N 31°13' E 122°06'213.4
2018-Feb-12 17:27N 31°14' E 122°04'713.9
2018-Feb-12 16:58N 31°15' E 121°56'813.6
2018-Feb-12 16:23N 31°18' E 121°47'513.2
2018-Feb-12 15:59N 31°20' E 121°42'6 1.6
2018-Feb-12 12:19N 31°22' E 121°35'0 0.0
2018-Feb-12 11:43N 31°22' E 121°35'0 0.0
2018-Feb-12 11:07N 31°22' E 121°35'0 0.0
2018-Feb-12 10:49N 31°22' E 121°35'0 0.0
2018-Feb-12 07:49N 31°22' E 121°35'0 0.0
2018-Feb-12 05:22N 31°22' E 121°35'0 0.6
2018-Feb-12 04:58N 31°23' E 121°35'1 1.0
2018-Feb-12 04:25N 31°22' E 121°36'23 6.7
2018-Feb-12 01:00N 31°15' E 122°01'  
Track history (hours):
 
Tides and Currents Weather Stations Pressure Air Temp Water Temp Dewpoint Dewpoint Depression Visibility Wind Speed Wind Dir Waves Ship Positions

Jules Verne

Last reported at 2018-Feb-18 03:28 UTC. Time now 2018-Feb-24 00:34 UTC.
Position N 23°07' E 117°23'.

Length 261 m; draft 10.7 m.

Type: Ship (hazmat cat A). MMSI: 636091763.

Date/timePositionNaut miles runAvg speedWind from/ knotsBaromVisibWave heightAir tempDewpointWater temp
2018-Feb-18 03:28N 23°07' E 117°23'510.6
2018-Feb-18 02:59N 23°10' E 117°27'610.4
2018-Feb-18 02:27N 23°13' E 117°32'510.3
2018-Feb-18 01:55N 23°17' E 117°36'410.4
2018-Feb-18 01:29N 23°20' E 117°40'510.6
2018-Feb-18 01:00N 23°23' E 117°45'510.1
2018-Feb-18 00:30N 23°26' E 117°49'710.9
2018-Feb-17 23:50N 23°31' E 117°55'411.3
2018-Feb-17 23:30N 23°34' E 117°58'611.4
2018-Feb-17 22:56N 23°38' E 118°03'2412.1
2018-Feb-17 21:00N 23°52' E 118°24'812.5
2018-Feb-17 20:22N 23°57' E 118°30'512.5
2018-Feb-17 19:58N 24°00' E 118°34'612.5
2018-Feb-17 19:30N 24°04' E 118°39'  
2018-Feb-12 19:53N 31°05' E 122°38'514.2
2018-Feb-12 19:30N 31°05' E 122°32'811.9
2018-Feb-12 18:53N 31°06' E 122°23'613.8
2018-Feb-12 18:28N 31°07' E 122°16'1012.4
2018-Feb-12 17:38N 31°13' E 122°06'213.4
2018-Feb-12 17:27N 31°14' E 122°04'713.9
2018-Feb-12 16:58N 31°15' E 121°56'813.6
2018-Feb-12 16:23N 31°18' E 121°47'513.2
2018-Feb-12 15:59N 31°20' E 121°42'6 1.6
2018-Feb-12 12:19N 31°22' E 121°35'0 0.0
2018-Feb-12 11:43N 31°22' E 121°35'0 0.0
2018-Feb-12 11:07N 31°22' E 121°35'0 0.0
2018-Feb-12 10:49N 31°22' E 121°35'0 0.0
2018-Feb-12 07:49N 31°22' E 121°35'0 0.0
2018-Feb-12 05:22N 31°22' E 121°35'0 0.6
2018-Feb-12 04:58N 31°23' E 121°35'1 1.0
2018-Feb-12 04:25N 31°22' E 121°36'23 6.7
2018-Feb-12 01:00N 31°15' E 122°01'  

Dump ship's entire track history